Time;durP1;ratioP1;P1;durP2;ratioP2;P2;SDS_P1;SDS_P2;PMS_P1;PMS_P2;Temp;Humidity;BMP_temperature;BMP_pressure;BME280_temperature;BME280_humidity;BME280_pressure;Samples;Min_cycle;Max_cycle;Signal;HPM_P1;HPM_P2
2022/05/24 00:00:37;;;;;;;;;5.00;5.00;;;;;;;;5224233;28;8953;-67
2022/05/24 00:03:08;;;;;;;;;5.80;3.80;;;;;;;;5224260;28;9007;-68
2022/05/24 00:05:58;;;;;;;;;3.00;3.00;;;;;;;;5212633;28;8884;-67
2022/05/24 00:08:29;;;;;;;;;3.00;3.00;;;;;;;;5207596;28;8793;-68
2022/05/24 00:11:01;;;;;;;;;0.20;0.20;;;;;;;;5207555;28;8874;-68
2022/05/24 00:13:32;;;;;;;;;1.00;1.00;;;;;;;;5207381;28;8813;-68
2022/05/24 00:16:03;;;;;;;;;1.60;1.60;;;;;;;;5224368;28;8773;-68
2022/05/24 00:18:35;;;;;;;;;3.60;3.60;;;;;;;;5208141;28;8936;-67
2022/05/24 00:21:06;;;;;;;;;9.20;9.20;;;;;;;;5208315;28;8813;-67
2022/05/24 00:23:37;;;;;;;;;6.80;6.80;;;;;;;;5227333;28;8770;-67
2022/05/24 00:26:14;;;;;;;;;6.80;6.40;;;;;;;;5214877;28;8883;-68
2022/05/24 00:28:46;;;;;;;;;9.00;9.00;;;;;;;;5224195;28;8797;-68
2022/05/24 00:31:17;;;;;;;;;4.60;4.60;;;;;;;;5227763;28;8799;-68
2022/05/24 00:33:48;;;;;;;;;1.00;1.00;;;;;;;;5209966;28;8837;-69
2022/05/24 00:36:19;;;;;;;;;0.40;0.40;;;;;;;;5211760;28;8783;-68
2022/05/24 00:38:50;;;;;;;;;1.00;1.00;;;;;;;;5211535;28;8799;-68
2022/05/24 00:41:25;;;;;;;;;1.00;1.00;;;;;;;;5244534;28;8840;-68
2022/05/24 00:44:09;;;;;;;;;1.00;1.00;;;;;;;;5212681;28;8783;-67
2022/05/24 00:46:43;;;;;;;;;1.00;1.00;;;;;;;;5249112;28;8799;-67
2022/05/24 00:49:25;;;;;;;;;1.00;1.00;;;;;;;;5231838;28;8964;-67
2022/05/24 00:52:17;;;;;;;;;1.00;1.00;;;;;;;;5231945;28;8864;-67
2022/05/24 00:55:09;;;;;;;;;0.40;0.40;;;;;;;;5245054;28;8787;-67
2022/05/24 00:57:46;;;;;;;;;0.60;0.60;;;;;;;;5215074;28;8846;-67
2022/05/24 01:00:19;;;;;;;;;1.60;1.60;;;;;;;;5231359;28;8790;-67
2022/05/24 01:02:51;;;;;;;;;1.00;1.00;;;;;;;;5214751;28;8860;-69
2022/05/24 01:05:25;;;;;;;;;0.00;0.00;;;;;;;;5196601;28;8793;-68
2022/05/24 01:07:57;;;;;;;;;1.00;1.00;;;;;;;;5211022;28;8781;-68
2022/05/24 01:10:45;;;;;;;;;0.00;0.00;;;;;;;;5231331;28;8775;-67
2022/05/24 01:13:19;;;;;;;;;0.40;0.40;;;;;;;;5247861;28;8775;-69
2022/05/24 01:16:09;;;;;;;;;0.00;0.00;;;;;;;;5249286;28;8801;-69
2022/05/24 01:18:43;;;;;;;;;0.80;0.80;;;;;;;;5214769;28;8856;-69
2022/05/24 01:21:16;;;;;;;;;0.00;0.00;;;;;;;;5214681;28;8846;-68
2022/05/24 01:24:05;;;;;;;;;1.00;1.00;;;;;;;;5230574;28;8849;-69
2022/05/24 01:26:43;;;;;;;;;1.00;1.00;;;;;;;;5231554;28;9547;-69
2022/05/24 01:29:18;;;;;;;;;0.00;0.00;;;;;;;;5210284;28;8936;-68
2022/05/24 01:37:30;;;;;;;;;0.80;0.80;;;;;;;;5228154;28;8806;-68
2022/05/24 01:40:03;;;;;;;;;0.00;0.00;;;;;;;;5210151;28;8778;-68
2022/05/24 01:42:34;;;;;;;;;0.00;0.00;;;;;;;;5226273;28;9601;-69
2022/05/24 01:45:14;;;;;;;;;0.80;0.80;;;;;;;;5210351;28;8782;-68
2022/05/24 01:47:48;;;;;;;;;0.00;0.00;;;;;;;;5232097;28;8795;-68
2022/05/24 01:50:21;;;;;;;;;0.00;0.00;;;;;;;;5230669;28;9605;-68
2022/05/24 01:52:55;;;;;;;;;0.00;0.00;;;;;;;;5247190;28;8791;-69
2022/05/24 01:55:30;;;;;;;;;0.00;0.00;;;;;;;;5230339;28;8775;-68
2022/05/24 01:58:08;;;;;;;;;0.00;0.00;;;;;;;;5247052;28;8775;-68
2022/05/24 02:01:01;;;;;;;;;0.00;0.00;;;;;;;;5246808;28;8814;-68
2022/05/24 02:03:40;;;;;;;;;0.80;0.80;;;;;;;;5216275;28;8871;-68
2022/05/24 02:06:37;;;;;;;;;0.40;0.40;;;;;;;;5209827;28;8847;-68
2022/05/24 02:09:10;;;;;;;;;0.00;0.00;;;;;;;;5206970;28;8790;-68
2022/05/24 02:11:41;;;;;;;;;0.00;0.00;;;;;;;;5226169;28;8785;-68
2022/05/24 02:14:17;;;;;;;;;0.00;0.00;;;;;;;;5193160;28;9592;-68
2022/05/24 02:16:54;;;;;;;;;2.60;2.60;;;;;;;;5209608;28;8804;-68
2022/05/24 02:19:50;;;;;;;;;1.00;1.00;;;;;;;;5226137;28;8801;-68
2022/05/24 02:22:23;;;;;;;;;0.00;0.00;;;;;;;;5226770;28;8934;-68
2022/05/24 02:24:56;;;;;;;;;0.00;0.00;;;;;;;;5227085;28;8808;-67
2022/05/24 02:27:27;;;;;;;;;0.00;0.00;;;;;;;;5209539;28;8812;-67
2022/05/24 02:29:58;;;;;;;;;0.40;0.40;;;;;;;;5226685;28;9500;-68
2022/05/24 02:32:29;;;;;;;;;1.00;1.00;;;;;;;;5225357;28;8810;-68
2022/05/24 02:35:01;;;;;;;;;1.00;1.00;;;;;;;;5226461;28;9508;-69
2022/05/24 02:37:50;;;;;;;;;2.60;2.60;;;;;;;;5211435;28;8770;-69
2022/05/24 02:43:11;;;;;;;;;3.00;3.00;;;;;;;;5208671;28;8789;-68
2022/05/24 02:45:42;;;;;;;;;1.00;0.00;;;;;;;;5208858;28;8805;-68
2022/05/24 02:48:13;;;;;;;;;1.60;1.60;;;;;;;;5240513;28;8825;-68
2022/05/24 02:50:44;;;;;;;;;1.00;1.00;;;;;;;;5223965;28;8947;-68
2022/05/24 02:53:15;;;;;;;;;1.20;1.20;;;;;;;;5192252;28;8797;-69
2022/05/24 02:55:47;;;;;;;;;1.00;1.00;;;;;;;;5241618;28;8785;-69
2022/05/24 02:58:18;;;;;;;;;0.00;0.00;;;;;;;;5208138;28;8798;-68
2022/05/24 03:00:49;;;;;;;;;0.00;0.00;;;;;;;;5191828;28;8835;-68
2022/05/24 03:03:39;;;;;;;;;0.00;0.00;;;;;;;;5227712;28;8999;-69
2022/05/24 03:06:11;;;;;;;;;1.80;1.80;;;;;;;;5213331;28;9651;-68
2022/05/24 03:14:26;;;;;;;;;1.60;1.00;;;;;;;;5224657;28;8827;-68
2022/05/24 03:16:58;;;;;;;;;0.00;0.00;;;;;;;;5224720;28;8778;-69
2022/05/24 03:19:29;;;;;;;;;0.00;0.00;;;;;;;;5224533;28;8786;-69
2022/05/24 03:22:00;;;;;;;;;9.80;8.80;;;;;;;;5244659;28;8887;-69
2022/05/24 03:24:31;;;;;;;;;1.80;1.80;;;;;;;;5211701;28;8791;-71
2022/05/24 03:27:11;;;;;;;;;0.00;0.00;;;;;;;;5209046;28;8801;-71
2022/05/24 03:29:43;;;;;;;;;0.20;0.20;;;;;;;;5227046;28;8795;-69
2022/05/24 03:32:15;;;;;;;;;0.00;0.00;;;;;;;;5211828;28;8815;-69
2022/05/24 03:35:05;;;;;;;;;0.00;0.00;;;;;;;;5245218;28;8831;-69
2022/05/24 03:37:37;;;;;;;;;0.00;0.00;;;;;;;;5244119;28;8807;-67
2022/05/24 03:40:09;;;;;;;;;64.80;52.60;;;;;;;;5244331;28;9611;-68
2022/05/24 03:42:40;;;;;;;;;0.00;0.00;;;;;;;;5227483;28;8823;-68
2022/05/24 03:45:12;;;;;;;;;0.00;0.00;;;;;;;;5244052;28;8829;-69
2022/05/24 03:47:43;;;;;;;;;1.00;1.00;;;;;;;;5211513;28;8783;-69
2022/05/24 03:50:14;;;;;;;;;0.00;0.00;;;;;;;;5244962;28;8783;-69
2022/05/24 03:52:45;;;;;;;;;0.00;0.00;;;;;;;;5245123;28;8811;-69
2022/05/24 03:55:35;;;;;;;;;0.00;0.00;;;;;;;;5246247;28;9494;-68
2022/05/24 03:58:06;;;;;;;;;0.00;0.00;;;;;;;;5245550;28;8934;-69
2022/05/24 04:00:38;;;;;;;;;0.00;0.00;;;;;;;;5223727;28;8810;-69
2022/05/24 04:03:10;;;;;;;;;0.00;0.00;;;;;;;;5207571;28;8802;-69
2022/05/24 04:05:41;;;;;;;;;0.00;0.00;;;;;;;;5224028;28;8852;-68
2022/05/24 04:08:15;;;;;;;;;0.00;0.00;;;;;;;;5190712;28;8836;-69
2022/05/24 04:10:46;;;;;;;;;3.00;3.00;;;;;;;;5222416;28;8785;-68
2022/05/24 04:13:17;;;;;;;;;0.00;0.00;;;;;;;;5222647;28;8821;-68
2022/05/24 04:15:49;;;;;;;;;1.00;1.00;;;;;;;;5242752;28;8783;-69
2022/05/24 04:18:21;;;;;;;;;0.00;0.00;;;;;;;;5245284;28;8917;-68
2022/05/24 04:20:54;;;;;;;;;0.00;0.00;;;;;;;;5211704;28;8852;-68
2022/05/24 04:23:43;;;;;;;;;0.20;0.20;;;;;;;;5226929;28;8782;-69
2022/05/24 04:26:33;;;;;;;;;0.00;0.00;;;;;;;;5228394;28;8812;-68
2022/05/24 04:29:04;;;;;;;;;0.00;0.00;;;;;;;;5226038;28;8801;-69
2022/05/24 04:31:53;;;;;;;;;0.00;0.00;;;;;;;;5226813;28;8793;-68
2022/05/24 04:34:24;;;;;;;;;0.00;0.00;;;;;;;;5226545;28;8793;-69
2022/05/24 04:36:56;;;;;;;;;0.00;0.00;;;;;;;;5227789;28;9520;-68
2022/05/24 04:39:27;;;;;;;;;0.00;0.00;;;;;;;;5237458;28;8790;-68
2022/05/24 04:44:53;;;;;;;;;0.20;0.20;;;;;;;;5248101;28;9522;-68
2022/05/24 04:47:25;;;;;;;;;0.00;0.00;;;;;;;;5223703;28;8797;-70
2022/05/24 04:49:58;;;;;;;;;0.00;0.00;;;;;;;;5239285;28;8801;-69
2022/05/24 04:52:36;;;;;;;;;0.00;0.00;;;;;;;;5215640;28;8828;-68
2022/05/24 04:55:09;;;;;;;;;0.00;0.00;;;;;;;;5248273;28;8787;-70
2022/05/24 04:57:43;;;;;;;;;0.00;0.00;;;;;;;;5249584;28;8771;-69
2022/05/24 05:00:15;;;;;;;;;0.00;0.00;;;;;;;;5230789;28;8806;-70
2022/05/24 05:02:48;;;;;;;;;2.00;2.00;;;;;;;;5214768;28;8819;-69
2022/05/24 05:05:38;;;;;;;;;3.00;3.00;;;;;;;;5249245;28;8783;-69
2022/05/24 05:08:09;;;;;;;;;3.20;3.20;;;;;;;;5240752;28;8821;-70
2022/05/24 05:10:40;;;;;;;;;2.60;2.60;;;;;;;;5229538;28;8779;-69
2022/05/24 05:13:12;;;;;;;;;4.80;4.80;;;;;;;;5229486;28;8797;-69
2022/05/24 05:15:43;;;;;;;;;3.00;3.00;;;;;;;;5194689;28;8823;-70
2022/05/24 05:18:18;;;;;;;;;3.00;3.00;;;;;;;;5225435;28;8880;-71
2022/05/24 05:21:02;;;;;;;;;1.40;1.40;;;;;;;;5209101;28;8926;-68
2022/05/24 05:23:39;;;;;;;;;6.20;6.20;;;;;;;;5198988;28;8834;-68
2022/05/24 05:26:15;;;;;;;;;1.40;1.40;;;;;;;;5245393;28;8860;-68
2022/05/24 05:28:46;;;;;;;;;1.60;1.60;;;;;;;;5245631;28;8801;-68
2022/05/24 05:31:22;;;;;;;;;1.00;1.00;;;;;;;;5244833;28;8807;-68
2022/05/24 05:33:54;;;;;;;;;0.00;0.00;;;;;;;;5212401;28;8803;-70
2022/05/24 05:36:44;;;;;;;;;4.80;4.80;;;;;;;;5245822;28;8984;-69
2022/05/24 05:39:15;;;;;;;;;5.40;5.40;;;;;;;;5228101;28;8811;-70
2022/05/24 05:41:46;;;;;;;;;3.40;3.40;;;;;;;;5228664;28;8858;-69
2022/05/24 05:44:18;;;;;;;;;4.20;4.20;;;;;;;;5244940;28;8817;-71
2022/05/24 05:46:51;;;;;;;;;10.00;10.00;;;;;;;;5245468;28;8799;-69
2022/05/24 05:49:22;;;;;;;;;13.80;13.80;;;;;;;;5212094;28;9521;-68
2022/05/24 05:51:53;;;;;;;;;16.20;15.40;;;;;;;;5242630;28;8829;-68
2022/05/24 05:54:25;;;;;;;;;15.40;15.40;;;;;;;;5208181;28;8995;-67
2022/05/24 05:56:56;;;;;;;;;10.80;10.80;;;;;;;;5234234;28;8822;-67
2022/05/24 05:59:27;;;;;;;;;1.00;1.00;;;;;;;;5228943;28;8790;-68
2022/05/24 06:01:58;;;;;;;;;0.00;0.00;;;;;;;;5227328;28;8830;-67
2022/05/24 06:04:30;;;;;;;;;1.50;1.50;;;;;;;;5244652;28;8806;-68
2022/05/24 06:07:01;;;;;;;;;1.00;1.00;;;;;;;;5244287;28;8798;-67
2022/05/24 06:09:32;;;;;;;;;4.75;4.75;;;;;;;;5244613;28;8814;-68
2022/05/24 06:12:04;;;;;;;;;1.50;1.50;;;;;;;;5245279;28;8783;-67
2022/05/24 06:14:35;;;;;;;;;0.00;0.00;;;;;;;;5212267;28;8826;-67
2022/05/24 06:17:06;;;;;;;;;1.00;1.00;;;;;;;;5229215;28;8799;-68
2022/05/24 06:19:37;;;;;;;;;1.00;1.00;;;;;;;;5212015;28;11854;-68
2022/05/24 06:22:08;;;;;;;;;2.00;2.00;;;;;;;;5245576;28;8890;-68
2022/05/24 06:24:39;;;;;;;;;0.00;0.00;;;;;;;;5228907;28;8787;-67
2022/05/24 06:27:10;;;;;;;;;1.00;1.00;;;;;;;;5246306;28;8802;-67
2022/05/24 06:29:41;;;;;;;;;2.00;2.00;;;;;;;;5246371;28;11436;-67
2022/05/24 06:32:12;;;;;;;;;0.00;0.00;;;;;;;;5247494;28;8821;-68
2022/05/24 06:34:43;;;;;;;;;1.00;1.00;;;;;;;;5246377;28;8779;-68
2022/05/24 06:37:15;;;;;;;;;3.00;3.00;;;;;;;;5246010;28;10368;-68
2022/05/24 06:39:47;;;;;;;;;1.00;1.00;;;;;;;;5247211;28;8897;-68
2022/05/24 06:42:18;;;;;;;;;0.00;0.00;;;;;;;;5244981;28;11469;-68
2022/05/24 06:44:49;;;;;;;;;0.00;0.00;;;;;;;;5229241;28;8803;-68
2022/05/24 06:47:20;;;;;;;;;1.75;1.75;;;;;;;;5245704;28;8787;-68
2022/05/24 06:49:51;;;;;;;;;0.00;0.00;;;;;;;;5247739;28;8787;-68
2022/05/24 06:52:40;;;;;;;;;7.75;7.75;;;;;;;;5246340;28;8795;-68
2022/05/24 06:55:11;;;;;;;;;20.50;20.00;;;;;;;;5246964;28;8828;-67
2022/05/24 06:57:42;;;;;;;;;1.25;1.25;;;;;;;;5245658;28;8783;-68
2022/05/24 07:03:08;;;;;;;;;1.50;1.50;;;;;;;;5245695;28;8814;-67
2022/05/24 07:05:40;;;;;;;;;0.25;0.25;;;;;;;;5245603;28;8881;-68
2022/05/24 07:08:12;;;;;;;;;2.00;2.00;;;;;;;;5212634;28;8787;-68
2022/05/24 07:10:43;;;;;;;;;1.00;1.00;;;;;;;;5246951;28;8787;-68
2022/05/24 07:13:19;;;;;;;;;1.00;1.00;;;;;;;;5229071;28;8874;-68
2022/05/24 07:15:50;;;;;;;;;2.00;2.00;;;;;;;;5228903;28;8857;-68
2022/05/24 07:18:21;;;;;;;;;18.00;16.80;;;;;;;;5228619;28;8779;-68
2022/05/24 07:20:52;;;;;;;;;13.00;13.00;;;;;;;;5245193;28;8806;-68
2022/05/24 07:23:26;;;;;;;;;0.00;0.00;;;;;;;;5245504;28;8855;-68
2022/05/24 07:26:17;;;;;;;;;0.50;0.50;;;;;;;;5231324;28;8925;-68
2022/05/24 07:28:49;;;;;;;;;0.00;0.00;;;;;;;;5246872;28;8775;-68
2022/05/24 07:31:23;;;;;;;;;0.25;0.25;;;;;;;;5228560;28;8783;-68
2022/05/24 07:33:54;;;;;;;;;1.25;1.25;;;;;;;;5246411;28;8833;-68
2022/05/24 07:36:25;;;;;;;;;0.25;0.00;;;;;;;;5245319;28;8775;-68
2022/05/24 07:38:58;;;;;;;;;1.75;1.75;;;;;;;;5228599;28;8795;-68
2022/05/24 07:47:09;;;;;;;;;1.25;1.25;;;;;;;;5231100;28;8775;-68
2022/05/24 07:49:41;;;;;;;;;1.00;1.00;;;;;;;;5245106;28;8879;-68
2022/05/24 07:52:12;;;;;;;;;0.75;0.75;;;;;;;;5245089;28;8795;-68
2022/05/24 07:55:01;;;;;;;;;17.75;17.75;;;;;;;;5245269;28;8783;-68
2022/05/24 07:57:34;;;;;;;;;9.25;7.25;;;;;;;;5244677;28;8802;-68
2022/05/24 08:00:06;;;;;;;;;4.75;4.75;;;;;;;;5212034;28;8795;-68
2022/05/24 08:02:43;;;;;;;;;2.00;2.00;;;;;;;;5229005;28;8838;-68
2022/05/24 08:05:14;;;;;;;;;2.00;2.00;;;;;;;;5228550;28;8810;-68
2022/05/24 08:07:46;;;;;;;;;3.00;3.00;;;;;;;;5228399;28;8791;-68
2022/05/24 08:10:17;;;;;;;;;1.00;1.00;;;;;;;;5228107;28;8779;-68
2022/05/24 08:12:48;;;;;;;;;0.33;0.33;;;;;;;;5228073;28;8791;-68
2022/05/24 08:15:19;;;;;;;;;0.50;0.50;;;;;;;;5245985;28;10752;-68
2022/05/24 08:17:50;;;;;;;;;0.00;0.00;;;;;;;;5228014;28;8787;-68
2022/05/24 08:20:21;;;;;;;;;2.00;2.00;;;;;;;;5245919;28;11431;-68
2022/05/24 08:22:52;;;;;;;;;2.33;2.33;;;;;;;;5227707;28;8822;-68
2022/05/24 08:25:25;;;;;;;;;7.80;7.40;;;;;;;;5244867;28;11442;-68
2022/05/24 08:27:58;;;;;;;;;6.20;6.20;;;;;;;;5244659;28;8815;-68
2022/05/24 08:30:31;;;;;;;;;1.50;1.50;;;;;;;;5244916;28;8767;-68
2022/05/24 08:33:04;;;;;;;;;1.00;1.00;;;;;;;;5245473;28;8779;-68
2022/05/24 08:35:36;;;;;;;;;6.00;6.00;;;;;;;;5227812;28;8771;-68
2022/05/24 08:38:26;;;;;;;;;4.50;4.50;;;;;;;;5246007;28;8788;-68
2022/05/24 08:41:00;;;;;;;;;20.00;18.60;;;;;;;;5244472;28;8830;-68
2022/05/24 08:43:50;;;;;;;;;14.00;13.40;;;;;;;;5244268;28;9514;-68
2022/05/24 08:49:22;;;;;;;;;3.00;3.00;;;;;;;;5245775;28;9539;-68
2022/05/24 08:51:56;;;;;;;;;3.00;3.00;;;;;;;;5244388;28;9529;-68
2022/05/24 08:54:35;;;;;;;;;5.75;5.75;;;;;;;;5244658;28;8771;-68
2022/05/24 08:57:15;;;;;;;;;6.00;6.00;;;;;;;;5211380;28;8852;-68
2022/05/24 09:00:10;;;;;;;;;3.00;3.00;;;;;;;;5244687;28;8815;-69
2022/05/24 09:02:44;;;;;;;;;7.50;7.50;;;;;;;;5244254;28;8839;-68
2022/05/24 09:05:29;;;;;;;;;6.50;6.50;;;;;;;;5245955;28;8909;-68
2022/05/24 09:08:27;;;;;;;;;3.00;3.00;;;;;;;;5234021;28;8787;-68
2022/05/24 09:11:09;;;;;;;;;3.00;3.00;;;;;;;;5248380;28;8801;-68
2022/05/24 09:13:42;;;;;;;;;1.00;1.00;;;;;;;;5231329;28;8795;-68
2022/05/24 09:16:16;;;;;;;;;12.50;12.50;;;;;;;;5247654;28;8787;-69
2022/05/24 09:18:58;;;;;;;;;8.67;8.67;;;;;;;;5231116;28;8872;-68
2022/05/24 09:21:29;;;;;;;;;3.50;3.50;;;;;;;;5248120;28;8818;-68
2022/05/24 09:24:12;;;;;;;;;1.00;1.00;;;;;;;;5230934;28;8860;-68
2022/05/24 09:27:02;;;;;;;;;1.75;1.75;;;;;;;;5231348;28;8779;-68
2022/05/24 09:29:35;;;;;;;;;2.50;2.50;;;;;;;;5247638;28;8751;-69
2022/05/24 09:32:08;;;;;;;;;2.50;2.50;;;;;;;;5247401;28;8834;-68
2022/05/24 09:34:39;;;;;;;;;0.75;0.75;;;;;;;;5214262;28;8852;-68
2022/05/24 09:37:36;;;;;;;;;3.00;3.00;;;;;;;;5231080;28;8783;-67
2022/05/24 09:40:17;;;;;;;;;6.00;6.00;;;;;;;;5244638;28;8783;-69
2022/05/24 09:42:48;;;;;;;;;1.00;1.00;;;;;;;;5215176;28;8807;-68
2022/05/24 09:45:22;;;;;;;;;1.00;1.00;;;;;;;;5248069;28;8783;-68
2022/05/24 09:47:54;;;;;;;;;1.00;1.00;;;;;;;;5230776;28;8805;-69
2022/05/24 09:50:31;;;;;;;;;7.20;7.20;;;;;;;;5248731;28;9493;-69
2022/05/24 09:53:24;;;;;;;;;6.00;6.00;;;;;;;;5233321;28;9566;-69
2022/05/24 09:55:59;;;;;;;;;19.00;19.00;;;;;;;;5247240;28;8790;-68
2022/05/24 09:58:57;;;;;;;;;8.20;8.20;;;;;;;;5246899;28;9591;-69
2022/05/24 10:01:30;;;;;;;;;4.40;4.40;;;;;;;;5213469;28;8865;-69
2022/05/24 10:04:13;;;;;;;;;4.50;4.50;;;;;;;;5229938;28;8791;-69
2022/05/24 10:07:02;;;;;;;;;2.25;2.25;;;;;;;;5247610;28;8876;-69
2022/05/24 10:09:58;;;;;;;;;2.50;2.50;;;;;;;;5247750;28;8784;-69
2022/05/24 10:12:34;;;;;;;;;1.75;1.75;;;;;;;;5230230;28;8783;-68
2022/05/24 10:15:08;;;;;;;;;4.00;4.00;;;;;;;;5246274;28;8767;-69
2022/05/24 10:17:45;;;;;;;;;3.25;3.25;;;;;;;;5246382;28;8794;-69
2022/05/24 10:20:16;;;;;;;;;3.25;3.25;;;;;;;;5246497;28;8826;-69
2022/05/24 10:22:50;;;;;;;;;10.20;10.20;;;;;;;;5229522;28;9537;-69
2022/05/24 10:25:28;;;;;;;;;18.40;18.20;;;;;;;;5229670;28;8859;-70
2022/05/24 10:28:08;;;;;;;;;3.20;3.20;;;;;;;;5246487;28;8798;-69
2022/05/24 10:31:00;;;;;;;;;4.60;4.60;;;;;;;;5247512;28;8770;-69
2022/05/24 10:39:28;;;;;;;;;5.40;5.40;;;;;;;;5246130;28;8778;-68
2022/05/24 10:42:15;;;;;;;;;0.00;0.00;;;;;;;;5245839;28;8834;-69
2022/05/24 10:44:47;;;;;;;;;4.60;4.60;;;;;;;;5247421;28;8795;-69
2022/05/24 10:47:36;;;;;;;;;7.80;5.40;;;;;;;;5247354;28;8825;-67
2022/05/24 10:50:09;;;;;;;;;4.00;4.00;;;;;;;;5247093;28;8787;-69
2022/05/24 10:53:02;;;;;;;;;2.00;2.00;;;;;;;;5245717;28;9550;-69
2022/05/24 10:55:45;;;;;;;;;6.20;6.20;;;;;;;;5245967;28;8811;-69
2022/05/24 10:58:17;;;;;;;;;3.00;3.00;;;;;;;;5229014;28;8827;-69
2022/05/24 11:01:14;;;;;;;;;15.40;14.40;;;;;;;;5212190;28;8803;-69
2022/05/24 11:03:49;;;;;;;;;2.40;2.40;;;;;;;;5241786;28;8909;-69
2022/05/24 11:06:23;;;;;;;;;4.00;4.00;;;;;;;;5247496;28;8797;-69
2022/05/24 11:08:59;;;;;;;;;4.20;3.80;;;;;;;;5245524;28;8844;-69
2022/05/24 11:11:30;;;;;;;;;2.00;2.00;;;;;;;;5228738;28;8872;-69
2022/05/24 11:14:20;;;;;;;;;2.00;2.00;;;;;;;;5245365;28;9493;-69
2022/05/24 11:16:52;;;;;;;;;1.40;1.40;;;;;;;;5245624;28;8811;-69
2022/05/24 11:19:24;;;;;;;;;0.00;0.00;;;;;;;;5228796;28;9501;-69
2022/05/24 11:22:28;;;;;;;;;0.00;0.00;;;;;;;;5245458;28;9526;-69
2022/05/24 11:25:19;;;;;;;;;0.67;0.67;;;;;;;;5246672;28;8759;-69
2022/05/24 11:28:06;;;;;;;;;0.00;0.00;;;;;;;;5244580;28;8798;-69
2022/05/24 11:30:38;;;;;;;;;1.00;1.00;;;;;;;;5229149;28;8787;-68
2022/05/24 11:33:11;;;;;;;;;1.50;1.50;;;;;;;;5228387;28;8791;-68
2022/05/24 11:35:44;;;;;;;;;3.00;3.00;;;;;;;;5212179;28;8856;-68
2022/05/24 11:38:35;;;;;;;;;1.00;1.00;;;;;;;;5228407;28;8795;-69
2022/05/24 11:41:17;;;;;;;;;2.00;2.00;;;;;;;;5228879;28;8826;-68
2022/05/24 11:43:48;;;;;;;;;4.40;4.40;;;;;;;;5212340;28;8790;-68
2022/05/24 11:46:34;;;;;;;;;4.20;4.20;;;;;;;;5228119;28;8790;-68
2022/05/24 11:49:24;;;;;;;;;8.20;8.20;;;;;;;;5245321;28;8795;-69
2022/05/24 11:51:56;;;;;;;;;4.40;4.40;;;;;;;;5228344;28;8783;-69
2022/05/24 11:54:50;;;;;;;;;7.80;7.80;;;;;;;;5244480;28;8925;-68
2022/05/24 11:57:24;;;;;;;;;1.20;1.20;;;;;;;;5211739;28;9545;-68
2022/05/24 11:59:55;;;;;;;;;11.20;11.20;;;;;;;;5245008;28;8783;-68
2022/05/24 12:09:17;;;;;;;;;9.80;9.80;;;;;;;;5241638;28;8856;-68
2022/05/24 12:12:16;;;;;;;;;7.20;7.20;;;;;;;;5225485;28;8872;-67
2022/05/24 12:15:04;;;;;;;;;7.00;7.00;;;;;;;;5205765;28;8794;-68
2022/05/24 12:17:35;;;;;;;;;7.20;7.20;;;;;;;;5209637;28;8815;-70
2022/05/24 12:20:24;;;;;;;;;15.40;15.20;;;;;;;;5242498;28;8837;-68
2022/05/24 12:23:05;;;;;;;;;11.80;11.80;;;;;;;;5241212;28;8834;-68
2022/05/24 12:25:59;;;;;;;;;13.00;13.00;;;;;;;;5244404;28;8791;-69
2022/05/24 12:28:34;;;;;;;;;2.80;2.80;;;;;;;;5211078;28;9497;-68
2022/05/24 12:31:17;;;;;;;;;1.00;1.00;;;;;;;;5222357;28;8782;-69
2022/05/24 12:33:55;;;;;;;;;9.20;9.20;;;;;;;;5202601;28;10118;-69
2022/05/24 12:36:29;;;;;;;;;6.60;6.60;;;;;;;;5223601;28;8814;-70
2022/05/24 12:39:21;;;;;;;;;11.00;10.60;;;;;;;;5234285;28;8803;-69
2022/05/24 12:41:56;;;;;;;;;8.80;8.60;;;;;;;;5247699;28;8831;-69
2022/05/24 12:44:30;;;;;;;;;5.40;5.40;;;;;;;;5234398;28;8825;-68
2022/05/24 12:47:04;;;;;;;;;4.00;3.40;;;;;;;;5224486;28;8813;-69
2022/05/24 12:49:50;;;;;;;;;5.40;5.40;;;;;;;;5225929;28;8804;-70
2022/05/24 12:52:40;;;;;;;;;7.00;6.00;;;;;;;;5226789;28;8802;-69
2022/05/24 12:55:54;;;;;;;;;3.00;3.00;;;;;;;;5225651;28;9539;-69
2022/05/24 12:58:30;;;;;;;;;3.00;3.00;;;;;;;;5226677;28;8794;-69
2022/05/24 13:01:25;;;;;;;;;5.00;5.00;;;;;;;;5225534;28;8836;-69
2022/05/24 13:04:07;;;;;;;;;6.00;6.00;;;;;;;;5225574;28;8801;-68
2022/05/24 13:06:48;;;;;;;;;4.00;4.00;;;;;;;;5229339;28;9513;-69
2022/05/24 13:09:21;;;;;;;;;14.20;13.80;;;;;;;;5212276;28;8815;-68
2022/05/24 13:11:55;;;;;;;;;11.00;10.60;;;;;;;;5245460;28;8844;-67
2022/05/24 13:14:45;;;;;;;;;8.60;8.40;;;;;;;;5245864;28;8802;-69
2022/05/24 13:17:18;;;;;;;;;47.00;41.40;;;;;;;;5245702;28;8775;-69
2022/05/24 13:19:59;;;;;;;;;7.20;7.20;;;;;;;;5245735;28;8795;-68
2022/05/24 13:22:39;;;;;;;;;11.20;10.80;;;;;;;;5207185;28;8948;-68
2022/05/24 13:25:18;;;;;;;;;1.00;1.00;;;;;;;;5226345;28;8818;-69
2022/05/24 13:28:00;;;;;;;;;4.40;4.40;;;;;;;;5240326;28;8815;-69
2022/05/24 13:34:19;;;;;;;;;8.20;8.20;;;;;;;;5247088;28;8871;-68
2022/05/24 13:36:55;;;;;;;;;9.80;9.80;;;;;;;;5246975;28;8782;-70
2022/05/24 13:39:44;;;;;;;;;14.40;14.40;;;;;;;;5245933;28;8795;-71
2022/05/24 13:42:25;;;;;;;;;13.00;13.00;;;;;;;;5239227;28;8833;-70
2022/05/24 13:45:27;;;;;;;;;23.60;22.40;;;;;;;;5212424;28;11553;-69
2022/05/24 13:48:25;;;;;;;;;23.20;20.60;;;;;;;;5212421;28;8840;-69
2022/05/24 13:51:15;;;;;;;;;10.00;10.00;;;;;;;;5241214;28;8795;-69
2022/05/24 13:53:46;;;;;;;;;52.40;42.80;;;;;;;;5230281;28;8830;-69
2022/05/24 13:56:21;;;;;;;;;12.20;12.20;;;;;;;;5213626;28;8787;-69
2022/05/24 13:59:06;;;;;;;;;9.00;8.80;;;;;;;;5247251;28;9522;-69
2022/05/24 14:01:38;;;;;;;;;4.00;4.00;;;;;;;;5247354;28;8869;-69
2022/05/24 14:04:20;;;;;;;;;7.40;7.40;;;;;;;;5226909;28;8866;-67
2022/05/24 14:06:56;;;;;;;;;19.80;19.80;;;;;;;;5226132;28;8802;-68
2022/05/24 14:09:31;;;;;;;;;11.20;11.20;;;;;;;;5226140;28;8793;-68
2022/05/24 14:12:21;;;;;;;;;8.00;8.00;;;;;;;;5226044;28;8789;-68
2022/05/24 14:14:51;;;;;;;;;23.25;21.75;;;;;;;;5229175;28;8828;-68
2022/05/24 14:17:22;;;;;;;;;8.25;8.00;;;;;;;;5239049;28;11507;-67
2022/05/24 14:20:11;;;;;;;;;10.80;10.80;;;;;;;;5243484;28;8786;-68
2022/05/24 14:22:42;;;;;;;;;1.50;1.50;;;;;;;;5226874;28;9525;-69
2022/05/24 14:25:14;;;;;;;;;13.25;13.25;;;;;;;;5226529;28;9801;-69
2022/05/24 14:27:44;;;;;;;;;3.60;3.60;;;;;;;;5226681;28;8790;-68
2022/05/24 14:30:15;;;;;;;;;5.00;5.00;;;;;;;;5211714;28;8804;-68
2022/05/24 14:32:46;;;;;;;;;3.00;3.00;;;;;;;;5223267;28;10034;-69
2022/05/24 14:35:18;;;;;;;;;1.00;1.00;;;;;;;;5226762;28;9015;-68
2022/05/24 14:37:49;;;;;;;;;2.00;2.00;;;;;;;;5226198;28;11463;-68
2022/05/24 14:40:20;;;;;;;;;1.25;1.25;;;;;;;;5242466;28;9520;-68
2022/05/24 14:42:51;;;;;;;;;2.00;2.00;;;;;;;;5226900;28;9369;-69
2022/05/24 14:45:41;;;;;;;;;0.00;0.00;;;;;;;;5241150;28;8815;-68
2022/05/24 14:48:11;;;;;;;;;3.40;3.40;;;;;;;;5245788;28;8791;-68
2022/05/24 14:50:43;;;;;;;;;1.75;1.75;;;;;;;;5229925;28;8864;-68
2022/05/24 14:53:14;;;;;;;;;2.00;2.00;;;;;;;;5246183;28;11370;-68
2022/05/24 14:55:45;;;;;;;;;0.00;0.00;;;;;;;;5232039;28;9531;-68
2022/05/24 14:58:17;;;;;;;;;1.80;1.80;;;;;;;;5244454;28;8814;-69
2022/05/24 15:00:48;;;;;;;;;2.40;2.40;;;;;;;;5224766;28;8805;-68
2022/05/24 15:03:18;;;;;;;;;3.50;3.50;;;;;;;;5207838;28;8798;-68
2022/05/24 15:05:49;;;;;;;;;5.25;5.25;;;;;;;;5226150;28;8983;-66
2022/05/24 15:17:08;;;;;;;;;10.80;8.80;;;;;;;;5225531;28;8773;-70
2022/05/24 15:20:03;;;;;;;;;5.80;5.80;;;;;;;;5224643;28;8778;-69
2022/05/24 15:22:36;;;;;;;;;5.00;4.80;;;;;;;;5211042;28;8940;-68
2022/05/24 15:25:15;;;;;;;;;3.60;3.60;;;;;;;;5224712;28;8820;-67
2022/05/24 15:27:49;;;;;;;;;12.40;12.20;;;;;;;;5224230;28;8769;-69
2022/05/24 15:30:20;;;;;;;;;10.60;10.60;;;;;;;;5216332;28;8814;-68
2022/05/24 15:32:51;;;;;;;;;2.60;2.60;;;;;;;;5225828;28;8818;-70
2022/05/24 15:35:22;;;;;;;;;3.40;3.40;;;;;;;;5210158;28;8802;-70
2022/05/24 15:37:53;;;;;;;;;3.00;3.00;;;;;;;;5201456;28;8813;-69
2022/05/24 15:40:25;;;;;;;;;2.00;2.00;;;;;;;;5231887;28;11463;-74
2022/05/24 15:42:58;;;;;;;;;0.20;0.20;;;;;;;;5205777;28;11514;-75
2022/05/24 15:45:29;;;;;;;;;3.00;3.00;;;;;;;;5203801;28;8810;-78
2022/05/24 15:48:01;;;;;;;;;3.40;3.40;;;;;;;;5189646;28;8796;-76
2022/05/24 15:50:50;;;;;;;;;3.20;3.20;;;;;;;;5222920;28;8793;-74
2022/05/24 15:53:40;;;;;;;;;8.20;8.20;;;;;;;;5223779;28;8782;-70
2022/05/24 15:56:11;;;;;;;;;4.00;4.00;;;;;;;;5222207;28;8798;-70
2022/05/24 15:58:43;;;;;;;;;4.40;4.40;;;;;;;;5228466;28;8914;-69
2022/05/24 16:01:14;;;;;;;;;32.80;32.60;;;;;;;;5221782;28;9575;-69
2022/05/24 16:03:46;;;;;;;;;8.80;8.80;;;;;;;;5206071;28;8801;-69
2022/05/24 16:11:56;;;;;;;;;1.40;1.40;;;;;;;;5225922;28;8817;-71
2022/05/24 16:14:31;;;;;;;;;1.00;1.00;;;;;;;;5243925;28;8791;-69
2022/05/24 16:17:02;;;;;;;;;3.20;3.20;;;;;;;;5248657;28;8779;-68
2022/05/24 16:19:33;;;;;;;;;4.00;4.00;;;;;;;;5247887;28;8795;-69
2022/05/24 16:22:04;;;;;;;;;3.80;3.80;;;;;;;;5250665;28;9495;-68
2022/05/24 16:24:53;;;;;;;;;2.00;2.00;;;;;;;;5270044;28;9535;-68
2022/05/24 16:27:25;;;;;;;;;617.00;432.50;;;;;;;;5269470;28;8776;-67
2022/05/24 16:29:56;;;;;;;;;41.40;38.40;;;;;;;;5269493;28;9579;-67
2022/05/24 16:32:27;;;;;;;;;14.60;13.60;;;;;;;;5269107;28;8938;-67
2022/05/24 16:35:16;;;;;;;;;7.20;7.20;;;;;;;;5262442;28;8791;-67
2022/05/24 16:37:47;;;;;;;;;17.00;17.00;;;;;;;;5246551;28;8838;-67
2022/05/24 16:40:37;;;;;;;;;1.00;1.00;;;;;;;;5247366;28;11646;-68
2022/05/24 16:47:17;;;;;;;;;0.80;0.00;;;;;;;;5242091;28;8786;-70
2022/05/24 16:49:49;;;;;;;;;0.00;0.00;;;;;;;;5211917;28;8793;-67
2022/05/24 16:52:20;;;;;;;;;2.00;2.00;;;;;;;;5227915;28;8802;-68